Time;durP1;ratioP1;P1;durP2;ratioP2;P2;SDS_P1;SDS_P2;PMS_P1;PMS_P2;Temp;Humidity;BMP_temperature;BMP_pressure;BME280_temperature;BME280_humidity;BME280_pressure;Samples;Min_cycle;Max_cycle;Signal;HPM_P1;HPM_P2
2022/11/05 00:09:29;;;;;;;;;;;10.60;73.30;;;;;;5075699;28;19990;-87
2022/11/05 00:17:24;;;;;;;;;;;10.80;70.10;;;;;;5075288;28;19947;-87
2022/11/05 00:19:49;;;;;;;;;;;10.90;70.50;;;;;;5074836;28;19954;-87
2022/11/05 00:25:17;;;;;;;;;;;10.90;70.50;;;;;;5074869;28;20244;-87
2022/11/05 00:27:47;;;;;;;;;;;10.90;69.70;;;;;;5074821;28;20001;-87
2022/11/05 00:30:16;;;;;;;;;;;11.00;68.50;;;;;;5074596;28;19980;-87
2022/11/05 00:32:43;;;;;;;;;;;11.10;67.70;;;;;;5073443;28;20404;-87
2022/11/05 00:35:08;;;;;;;;;;;11.10;68.80;;;;;;5074698;28;20031;-87
2022/11/05 00:37:34;;;;;;;;;;;11.00;69.80;;;;;;5074602;28;20030;-87
2022/11/05 00:40:00;;;;;;;;;;;11.00;68.50;;;;;;5074776;28;20052;-87
2022/11/05 00:45:10;;;;;;;;;;;11.10;65.90;;;;;;5074462;28;20464;-87
2022/11/05 00:50:21;;;;;;;;;;;11.10;68.80;;;;;;5074331;28;20065;-87
2022/11/05 00:52:54;;;;;;;;;;;11.00;69.10;;;;;;5074081;28;20398;-87
2022/11/05 00:55:24;;;;;;;;;;;11.00;67.80;;;;;;5074237;28;19999;-87
2022/11/05 00:57:49;;;;;;;;;;;11.00;67.70;;;;;;5073936;28;19947;-87
2022/11/05 01:00:15;;;;;;;;;;;11.00;66.60;;;;;;5074182;28;19940;-87
2022/11/05 01:02:41;;;;;;;;;;;11.10;66.20;;;;;;5074109;28;19941;-87
2022/11/05 01:05:07;;;;;;;;;;;11.10;67.40;;;;;;5074393;28;19948;-87
2022/11/05 01:07:32;;;;;;;;;;;11.10;68.70;;;;;;5072735;28;20397;-87
2022/11/05 01:09:58;;;;;;;;;;;11.10;69.80;;;;;;5072486;28;19942;-87
2022/11/05 01:12:23;;;;;;;;;;;11.00;70.10;;;;;;5073740;28;19940;-87
2022/11/05 01:14:49;;;;;;;;;;;10.90;69.30;;;;;;5073840;28;20592;-87
2022/11/05 01:17:15;;;;;;;;;;;10.90;68.50;;;;;;5073827;28;19939;-87
2022/11/05 01:19:41;;;;;;;;;;;10.90;69.70;;;;;;5073757;28;19982;-87
2022/11/05 01:22:06;;;;;;;;;;;10.90;68.50;;;;;;5073728;28;20396;-87
2022/11/05 01:24:32;;;;;;;;;;;10.90;66.90;;;;;;5073683;28;20032;-87
2022/11/05 01:26:58;;;;;;;;;;;11.00;65.80;;;;;;5073682;28;19938;-87
2022/11/05 01:29:23;;;;;;;;;;;11.00;65.50;;;;;;5073418;28;19973;-87
2022/11/05 01:31:49;;;;;;;;;;;11.00;66.40;;;;;;5073593;28;19958;-87
2022/11/05 01:34:14;;;;;;;;;;;11.10;66.40;;;;;;5073469;28;19960;-87
2022/11/05 01:36:40;;;;;;;;;;;11.10;64.70;;;;;;5073468;28;19946;-87
2022/11/05 01:39:05;;;;;;;;;;;11.20;64.20;;;;;;5073438;28;20063;-87
2022/11/05 01:41:31;;;;;;;;;;;11.30;64.00;;;;;;5073467;28;19944;-88
2022/11/05 01:44:00;;;;;;;;;;;11.30;63.50;;;;;;5073379;28;19941;-87
2022/11/05 01:46:30;;;;;;;;;;;11.40;64.80;;;;;;5073607;28;19944;-87
2022/11/05 01:48:57;;;;;;;;;;;11.30;65.30;;;;;;5073388;28;19966;-87
2022/11/05 01:51:25;;;;;;;;;;;11.30;66.60;;;;;;5073435;28;20022;-87
2022/11/05 01:53:53;;;;;;;;;;;11.20;67.50;;;;;;5073232;28;19985;-86
2022/11/05 01:56:25;;;;;;;;;;;11.10;68.50;;;;;;5073231;28;19941;-87
2022/11/05 01:58:56;;;;;;;;;;;11.00;68.60;;;;;;5073117;28;19960;-87
2022/11/05 02:01:22;;;;;;;;;;;10.90;68.90;;;;;;5073215;28;19941;-87
2022/11/05 02:03:49;;;;;;;;;;;10.90;68.10;;;;;;5073479;28;20319;-87
2022/11/05 02:06:15;;;;;;;;;;;10.90;67.20;;;;;;5073165;28;19944;-87
2022/11/05 02:08:50;;;;;;;;;;;10.90;68.50;;;;;;5073440;28;19942;-87
2022/11/05 02:11:17;;;;;;;;;;;10.80;67.90;;;;;;5073088;28;20011;-87
2022/11/05 02:13:42;;;;;;;;;;;10.80;68.10;;;;;;5073365;28;19966;-86
2022/11/05 02:16:16;;;;;;;;;;;10.70;68.70;;;;;;5073113;28;20312;-86
2022/11/05 02:19:00;;;;;;;;;;;10.70;69.20;;;;;;5072958;28;19963;-87
2022/11/05 02:21:25;;;;;;;;;;;10.60;68.10;;;;;;5072958;28;19939;-87
2022/11/05 02:24:09;;;;;;;;;;;10.60;68.10;;;;;;5075828;28;20023;-87
2022/11/05 02:26:52;;;;;;;;;;;10.60;68.20;;;;;;5077090;28;19982;-87
2022/11/05 02:29:39;;;;;;;;;;;10.60;69.50;;;;;;5076845;28;19979;-87
2022/11/05 02:32:13;;;;;;;;;;;10.50;72.20;;;;;;5076963;28;19995;-87
2022/11/05 02:34:45;;;;;;;;;;;10.40;73.70;;;;;;5076869;28;19977;-87
2022/11/05 02:37:13;;;;;;;;;;;10.40;73.70;;;;;;5076838;28;20027;-87
2022/11/05 02:39:47;;;;;;;;;;;10.20;73.50;;;;;;5076764;28;19959;-87
2022/11/05 02:42:25;;;;;;;;;;;10.10;73.00;;;;;;5076808;28;19940;-87
2022/11/05 02:44:57;;;;;;;;;;;10.10;72.40;;;;;;5076769;28;19936;-87
2022/11/05 02:47:25;;;;;;;;;;;10.00;72.40;;;;;;5076637;28;19937;-87
2022/11/05 02:50:14;;;;;;;;;;;10.00;71.70;;;;;;5075956;28;19935;-87
2022/11/05 02:52:46;;;;;;;;;;;10.00;71.50;;;;;;5056370;28;20318;-87
2022/11/05 02:55:23;;;;;;;;;;;10.10;70.40;;;;;;5056549;28;19944;-87
2022/11/05 02:57:48;;;;;;;;;;;10.10;69.20;;;;;;5056414;28;20033;-87
2022/11/05 03:00:33;;;;;;;;;;;10.20;69.10;;;;;;5056613;28;20052;-86
2022/11/05 03:02:58;;;;;;;;;;;10.30;68.80;;;;;;5056432;28;19949;-86
2022/11/05 03:05:28;;;;;;;;;;;10.30;68.60;;;;;;5056327;28;20301;-87
2022/11/05 03:07:58;;;;;;;;;;;10.30;68.80;;;;;;5056593;28;20029;-87
2022/11/05 03:10:30;;;;;;;;;;;10.40;68.40;;;;;;5056235;28;19946;-87
2022/11/05 03:13:13;;;;;;;;;;;10.40;69.30;;;;;;5056232;28;19939;-87
2022/11/05 03:15:38;;;;;;;;;;;10.30;70.60;;;;;;5056113;28;19948;-86
2022/11/05 03:18:09;;;;;;;;;;;10.20;72.00;;;;;;5056047;28;19937;-87
2022/11/05 03:20:53;;;;;;;;;;;10.20;69.90;;;;;;5056027;28;19941;-87
2022/11/05 03:23:28;;;;;;;;;;;10.20;69.00;;;;;;5055932;28;19946;-87
2022/11/05 03:26:00;;;;;;;;;;;10.20;69.00;;;;;;5055950;28;19945;-87
2022/11/05 03:28:27;;;;;;;;;;;10.10;71.30;;;;;;5055849;28;19943;-86
2022/11/05 03:30:55;;;;;;;;;;;10.10;72.20;;;;;;5055660;28;19975;-87
2022/11/05 03:33:23;;;;;;;;;;;10.00;70.90;;;;;;5054192;28;19949;-86
2022/11/05 03:35:53;;;;;;;;;;;10.00;70.10;;;;;;5055989;28;20025;-86
2022/11/05 03:38:21;;;;;;;;;;;10.00;70.20;;;;;;5055581;28;19968;-87
2022/11/05 03:40:50;;;;;;;;;;;10.00;70.40;;;;;;5055892;28;19951;-87
2022/11/05 03:43:17;;;;;;;;;;;10.00;71.60;;;;;;5055545;28;20414;-86
2022/11/05 03:45:45;;;;;;;;;;;10.00;72.10;;;;;;5055570;28;19963;-87
2022/11/05 03:48:12;;;;;;;;;;;9.90;71.80;;;;;;5055507;28;20036;-87
2022/11/05 03:50:45;;;;;;;;;;;9.90;72.30;;;;;;5055695;28;20384;-87
2022/11/05 03:53:36;;;;;;;;;;;9.90;71.30;;;;;;5055250;28;19978;-87
2022/11/05 03:56:11;;;;;;;;;;;9.90;69.50;;;;;;5046725;28;19942;-87
2022/11/05 03:58:41;;;;;;;;;;;9.90;71.20;;;;;;5055261;28;20055;-87
2022/11/05 04:01:07;;;;;;;;;;;9.90;71.80;;;;;;5055494;28;20060;-86
2022/11/05 04:03:35;;;;;;;;;;;9.80;73.10;;;;;;5055200;28;20341;-86
2022/11/05 04:14:14;;;;;;;;;;;9.20;75.60;;;;;;5055339;28;20447;-86
2022/11/05 04:24:52;;;;;;;;;;;9.20;75.20;;;;;;5055116;28;19991;-87
2022/11/05 04:27:17;;;;;;;;;;;9.20;74.10;;;;;;5054811;28;19946;-87
2022/11/05 04:32:27;;;;;;;;;;;9.30;74.50;;;;;;5054694;28;19950;-86
2022/11/05 04:34:52;;;;;;;;;;;9.30;74.30;;;;;;5054673;28;19936;-87
2022/11/05 04:37:18;;;;;;;;;;;9.30;73.70;;;;;;5053349;28;20335;-87
2022/11/05 04:39:43;;;;;;;;;;;9.30;73.40;;;;;;5054424;28;20044;-87
2022/11/05 04:42:09;;;;;;;;;;;9.40;73.00;;;;;;5054501;28;20001;-87
2022/11/05 04:44:35;;;;;;;;;;;9.40;72.50;;;;;;5054491;28;19939;-87
2022/11/05 04:47:00;;;;;;;;;;;9.40;72.60;;;;;;5053991;28;20310;-86
2022/11/05 04:49:26;;;;;;;;;;;9.50;72.90;;;;;;5054355;28;20353;-87
2022/11/05 04:51:51;;;;;;;;;;;9.40;73.70;;;;;;5054209;28;20332;-86
2022/11/05 04:54:17;;;;;;;;;;;9.40;72.70;;;;;;5054309;28;20315;-86
2022/11/05 04:56:42;;;;;;;;;;;9.40;73.50;;;;;;5054280;28;20284;-86
2022/11/05 04:59:08;;;;;;;;;;;9.40;73.70;;;;;;5054662;28;20429;-87
2022/11/05 05:01:33;;;;;;;;;;;9.40;75.60;;;;;;5054206;28;19944;-86
2022/11/05 05:03:59;;;;;;;;;;;9.30;74.40;;;;;;5054098;28;19938;-87
2022/11/05 05:06:25;;;;;;;;;;;9.20;73.80;;;;;;5054058;28;19935;-87
2022/11/05 05:08:51;;;;;;;;;;;9.20;73.40;;;;;;5053991;28;19937;-86
2022/11/05 05:11:18;;;;;;;;;;;9.10;72.60;;;;;;5054014;28;19940;-87
2022/11/05 05:13:43;;;;;;;;;;;9.20;72.30;;;;;;5053963;28;19944;-87
2022/11/05 05:16:20;;;;;;;;;;;9.10;73.20;;;;;;5054108;28;19941;-87
2022/11/05 05:18:45;;;;;;;;;;;9.00;73.00;;;;;;5053720;28;19998;-87
2022/11/05 05:23:55;;;;;;;;;;;8.80;73.40;;;;;;5053764;28;20469;-87
2022/11/05 05:26:21;;;;;;;;;;;8.70;74.10;;;;;;5053657;28;19942;-86
2022/11/05 05:28:46;;;;;;;;;;;8.60;74.10;;;;;;5053926;28;19952;-87
2022/11/05 05:31:13;;;;;;;;;;;8.60;74.60;;;;;;5053395;28;20362;-86
2022/11/05 05:33:39;;;;;;;;;;;8.60;76.00;;;;;;5052306;28;19944;-86
2022/11/05 05:36:05;;;;;;;;;;;8.60;76.20;;;;;;5053537;28;20006;-86
2022/11/05 05:38:30;;;;;;;;;;;8.40;76.80;;;;;;5053362;28;20125;-86
2022/11/05 05:40:57;;;;;;;;;;;8.30;78.50;;;;;;5053745;28;19939;-86
2022/11/05 05:43:22;;;;;;;;;;;8.00;79.00;;;;;;5052212;28;19946;-86
2022/11/05 05:45:48;;;;;;;;;;;7.90;81.80;;;;;;5053328;28;19939;-86
2022/11/05 05:48:13;;;;;;;;;;;8.00;83.40;;;;;;5053331;28;20035;-86
2022/11/05 05:50:39;;;;;;;;;;;7.90;82.70;;;;;;5053210;28;19942;-87
2022/11/05 05:53:04;;;;;;;;;;;7.80;81.80;;;;;;5052866;28;19939;-86
2022/11/05 05:55:30;;;;;;;;;;;7.70;80.30;;;;;;5052650;28;19944;-86
2022/11/05 05:57:55;;;;;;;;;;;7.70;80.50;;;;;;5052945;28;19989;-86
2022/11/05 06:00:21;;;;;;;;;;;7.70;80.00;;;;;;5053044;28;20008;-87
2022/11/05 06:02:46;;;;;;;;;;;7.60;80.10;;;;;;5053648;28;19947;-86
2022/11/05 06:05:12;;;;;;;;;;;7.50;80.00;;;;;;5053134;28;20441;-86
2022/11/05 06:07:37;;;;;;;;;;;7.40;79.80;;;;;;5053004;28;19944;-86
2022/11/05 06:10:03;;;;;;;;;;;7.50;81.30;;;;;;5052993;28;19950;-86
2022/11/05 06:12:29;;;;;;;;;;;7.40;81.10;;;;;;5052903;28;19944;-86
2022/11/05 06:14:54;;;;;;;;;;;7.40;81.30;;;;;;5052498;28;19989;-86
2022/11/05 06:17:20;;;;;;;;;;;7.30;82.40;;;;;;5052743;28;20426;-86
2022/11/05 06:19:46;;;;;;;;;;;7.30;83.60;;;;;;5052317;28;20434;-86
2022/11/05 06:22:12;;;;;;;;;;;7.30;84.00;;;;;;5052967;28;19950;-86
2022/11/05 06:24:37;;;;;;;;;;;7.30;84.60;;;;;;5052923;28;20318;-86
2022/11/05 06:27:03;;;;;;;;;;;7.20;84.50;;;;;;5052937;28;19940;-87
2022/11/05 06:29:28;;;;;;;;;;;7.20;84.80;;;;;;5060312;22;19972;-86
2022/11/05 06:31:54;;;;;;;;;;;7.10;85.20;;;;;;5053116;28;19941;-86
2022/11/05 06:34:19;;;;;;;;;;;7.20;86.40;;;;;;5052232;28;20361;-86
2022/11/05 06:36:45;;;;;;;;;;;7.30;85.50;;;;;;5048462;28;20028;-86
2022/11/05 06:39:11;;;;;;;;;;;7.40;85.60;;;;;;5033103;28;19973;-86
2022/11/05 06:41:36;;;;;;;;;;;7.70;85.00;;;;;;5042009;28;20378;-86
2022/11/05 06:44:02;;;;;;;;;;;7.80;84.60;;;;;;5052031;28;20382;-87
2022/11/05 06:46:27;;;;;;;;;;;7.90;84.30;;;;;;5052736;28;19945;-86
2022/11/05 06:48:53;;;;;;;;;;;7.90;84.00;;;;;;5067558;28;19982;-86
2022/11/05 06:51:19;;;;;;;;;;;7.90;83.40;;;;;;5052143;28;19961;-87
2022/11/05 06:53:44;;;;;;;;;;;8.20;82.70;;;;;;5051345;28;19990;-87
2022/11/05 06:56:10;;;;;;;;;;;8.10;81.80;;;;;;5051910;28;19951;-86
2022/11/05 06:58:35;;;;;;;;;;;7.80;83.00;;;;;;5051497;28;19961;-86
2022/11/05 07:01:02;;;;;;;;;;;7.50;83.50;;;;;;5051636;28;19947;-86
2022/11/05 07:03:27;;;;;;;;;;;7.50;84.20;;;;;;5051704;28;20021;-87
2022/11/05 07:05:53;;;;;;;;;;;7.50;84.40;;;;;;5051824;28;20390;-86
2022/11/05 07:08:18;;;;;;;;;;;7.50;84.30;;;;;;5052217;28;19953;-86
2022/11/05 07:10:44;;;;;;;;;;;7.50;84.40;;;;;;5054959;28;19947;-86
2022/11/05 07:13:10;;;;;;;;;;;7.50;84.50;;;;;;5056065;28;19940;-86
2022/11/05 07:15:36;;;;;;;;;;;7.70;83.10;;;;;;5055570;28;19943;-86
2022/11/05 07:18:01;;;;;;;;;;;7.90;82.50;;;;;;5055802;28;20381;-86
2022/11/05 07:20:27;;;;;;;;;;;8.00;82.50;;;;;;5056223;28;19988;-87
2022/11/05 07:23:02;;;;;;;;;;;8.20;81.30;;;;;;5055992;28;19995;-87
2022/11/05 07:25:29;;;;;;;;;;;8.20;81.50;;;;;;5055896;28;19965;-87
2022/11/05 07:27:54;;;;;;;;;;;8.20;80.40;;;;;;5054966;28;19948;-87
2022/11/05 07:30:20;;;;;;;;;;;8.30;83.30;;;;;;5053422;28;20344;-87
2022/11/05 07:32:45;;;;;;;;;;;8.50;85.10;;;;;;5052594;28;19951;-87
2022/11/05 07:35:11;;;;;;;;;;;8.40;85.20;;;;;;5054664;28;19946;-87
2022/11/05 07:37:43;;;;;;;;;;;8.50;85.80;;;;;;5054284;28;20054;-87
2022/11/05 07:40:10;;;;;;;;;;;8.50;85.60;;;;;;5046544;28;20070;-87
2022/11/05 07:42:36;;;;;;;;;;;8.70;85.50;;;;;;5054032;28;19948;-87
2022/11/05 07:45:01;;;;;;;;;;;8.80;85.70;;;;;;5053351;28;19940;-87
2022/11/05 07:47:27;;;;;;;;;;;8.80;86.20;;;;;;5054677;28;20533;-87
2022/11/05 07:49:52;;;;;;;;;;;8.90;86.20;;;;;;5053382;28;19946;-86
2022/11/05 07:52:18;;;;;;;;;;;8.90;81.20;;;;;;5050762;28;19957;-86
2022/11/05 07:54:43;;;;;;;;;;;9.10;76.80;;;;;;5055160;28;20456;-87
2022/11/05 07:57:09;;;;;;;;;;;9.40;74.70;;;;;;5053617;28;19943;-87
2022/11/05 07:59:34;;;;;;;;;;;9.60;81.00;;;;;;5050996;28;19946;-86
2022/11/05 08:02:00;;;;;;;;;;;9.60;80.50;;;;;;5052690;28;19948;-86
2022/11/05 08:04:25;;;;;;;;;;;9.70;76.10;;;;;;5055157;28;19973;-87
2022/11/05 08:06:51;;;;;;;;;;;9.90;75.40;;;;;;5054113;28;19988;-87
2022/11/05 08:09:17;;;;;;;;;;;10.00;77.10;;;;;;5054329;28;20375;-87
2022/11/05 08:11:42;;;;;;;;;;;10.00;79.80;;;;;;5052740;28;20395;-87
2022/11/05 08:14:08;;;;;;;;;;;10.20;81.80;;;;;;5053843;28;19954;-87
2022/11/05 08:16:33;;;;;;;;;;;10.30;81.70;;;;;;5051671;28;20035;-87
2022/11/05 08:18:59;;;;;;;;;;;10.40;79.70;;;;;;5068137;28;20061;-87
2022/11/05 08:21:24;;;;;;;;;;;10.60;78.90;;;;;;5051300;28;19952;-86
2022/11/05 08:23:50;;;;;;;;;;;10.90;78.40;;;;;;5052626;28;19951;-86
2022/11/05 08:26:15;;;;;;;;;;;11.00;77.90;;;;;;5052055;28;19976;-87
2022/11/05 08:28:41;;;;;;;;;;;11.20;72.50;;;;;;5053358;28;19997;-87
2022/11/05 08:31:06;;;;;;;;;;;11.60;70.50;;;;;;5053662;28;20417;-86
2022/11/05 08:33:33;;;;;;;;;;;11.90;68.80;;;;;;5052444;28;20010;-87
2022/11/05 08:36:03;;;;;;;;;;;12.00;68.30;;;;;;5052725;28;20322;-87
2022/11/05 08:38:28;;;;;;;;;;;12.20;64.40;;;;;;5053397;28;20454;-87
2022/11/05 08:40:56;;;;;;;;;;;12.30;67.10;;;;;;5051216;28;19949;-87
2022/11/05 08:43:21;;;;;;;;;;;12.30;66.50;;;;;;5054442;28;19975;-87
2022/11/05 08:45:47;;;;;;;;;;;12.40;66.60;;;;;;5050456;28;19945;-87
2022/11/05 08:48:14;;;;;;;;;;;12.50;65.40;;;;;;5054343;28;19942;-87
2022/11/05 08:50:40;;;;;;;;;;;12.90;63.00;;;;;;5051972;28;19956;-87
2022/11/05 08:53:06;;;;;;;;;;;13.10;62.20;;;;;;5051738;28;19950;-87
2022/11/05 08:55:32;;;;;;;;;;;13.30;62.10;;;;;;5052856;28;19945;-87
2022/11/05 08:57:58;;;;;;;;;;;13.60;61.80;;;;;;5050306;28;19945;-87
2022/11/05 09:00:24;;;;;;;;;;;13.80;61.40;;;;;;5051180;28;19973;-87
2022/11/05 09:02:49;;;;;;;;;;;13.90;61.60;;;;;;5054015;28;20028;-87
2022/11/05 09:05:15;;;;;;;;;;;14.10;61.40;;;;;;5050921;28;19947;-87
2022/11/05 09:07:40;;;;;;;;;;;14.10;61.90;;;;;;5051984;28;20020;-87
2022/11/05 09:10:06;;;;;;;;;;;14.10;65.50;;;;;;5053320;28;20044;-87
2022/11/05 09:12:32;;;;;;;;;;;14.10;66.90;;;;;;5049235;28;20008;-87
2022/11/05 09:14:57;;;;;;;;;;;14.10;65.70;;;;;;5049599;28;19949;-87
2022/11/05 09:17:23;;;;;;;;;;;14.30;64.30;;;;;;5048427;28;19982;-87
2022/11/05 09:19:48;;;;;;;;;;;14.50;63.50;;;;;;5049197;28;19977;-87
2022/11/05 09:22:14;;;;;;;;;;;14.80;61.10;;;;;;5052045;28;20406;-87
2022/11/05 09:24:40;;;;;;;;;;;15.00;59.50;;;;;;5046923;28;20461;-87
2022/11/05 09:27:09;;;;;;;;;;;15.00;58.50;;;;;;5049178;28;19955;-87
2022/11/05 09:29:35;;;;;;;;;;;15.00;59.30;;;;;;5050009;28;20034;-87
2022/11/05 09:32:00;;;;;;;;;;;15.00;59.20;;;;;;5048652;28;20383;-87
2022/11/05 09:34:26;;;;;;;;;;;15.10;56.80;;;;;;5046463;28;20038;-86
2022/11/05 09:36:51;;;;;;;;;;;15.10;57.60;;;;;;5050357;28;19952;-86
2022/11/05 09:39:17;;;;;;;;;;;15.20;56.60;;;;;;5047124;28;19977;-87
2022/11/05 09:41:43;;;;;;;;;;;15.40;56.60;;;;;;5051152;28;19946;-87
2022/11/05 09:44:11;;;;;;;;;;;15.50;52.60;;;;;;5048753;28;20351;-87
2022/11/05 09:47:00;;;;;;;;;;;15.50;54.70;;;;;;5049803;28;19942;-86
2022/11/05 09:49:34;;;;;;;;;;;15.60;51.90;;;;;;5041724;28;19966;-87
2022/11/05 09:52:00;;;;;;;;;;;15.80;50.60;;;;;;5052628;28;19965;-87
2022/11/05 09:54:30;;;;;;;;;;;15.90;48.90;;;;;;5052637;28;19949;-87
2022/11/05 09:56:56;;;;;;;;;;;16.00;49.60;;;;;;5048352;28;20082;-87
2022/11/05 09:59:25;;;;;;;;;;;16.00;51.00;;;;;;5050415;28;20034;-87
2022/11/05 10:01:53;;;;;;;;;;;16.20;52.70;;;;;;5052013;28;20041;-86
2022/11/05 10:04:21;;;;;;;;;;;16.30;52.40;;;;;;5049451;28;19955;-87
2022/11/05 10:06:48;;;;;;;;;;;16.40;47.00;;;;;;5051801;28;19943;-87
2022/11/05 10:09:20;;;;;;;;;;;16.50;49.10;;;;;;5051244;28;20398;-87
2022/11/05 10:11:56;;;;;;;;;;;16.50;46.20;;;;;;5040457;28;19986;-87
2022/11/05 10:14:27;;;;;;;;;;;16.70;47.10;;;;;;5048765;28;19972;-87
2022/11/05 10:16:59;;;;;;;;;;;16.80;45.00;;;;;;5049748;28;19952;-87
2022/11/05 10:19:26;;;;;;;;;;;17.00;46.50;;;;;;5049651;28;19965;-87
2022/11/05 10:22:00;;;;;;;;;;;17.10;47.20;;;;;;5051347;28;19944;-87
2022/11/05 10:24:26;;;;;;;;;;;17.10;45.10;;;;;;5050078;28;19946;-87
2022/11/05 10:26:53;;;;;;;;;;;17.20;43.50;;;;;;5051555;28;20011;-87
2022/11/05 10:29:25;;;;;;;;;;;17.30;43.30;;;;;;5051101;28;19983;-87
2022/11/05 10:31:51;;;;;;;;;;;17.50;47.10;;;;;;5052900;28;19961;-87
2022/11/05 10:34:19;;;;;;;;;;;17.60;44.40;;;;;;5045185;28;19968;-87
2022/11/05 10:36:45;;;;;;;;;;;17.80;45.10;;;;;;5032827;28;19940;-87
2022/11/05 10:39:16;;;;;;;;;;;17.90;42.40;;;;;;5048861;28;20455;-87
2022/11/05 10:41:57;;;;;;;;;;;18.10;43.00;;;;;;5051193;28;19950;-87
2022/11/05 10:44:22;;;;;;;;;;;18.30;42.00;;;;;;5051765;28;20007;-87
2022/11/05 10:46:48;;;;;;;;;;;18.50;42.00;;;;;;5051656;28;19981;-87
2022/11/05 10:49:16;;;;;;;;;;;18.60;40.20;;;;;;5053450;28;19949;-87
2022/11/05 10:51:42;;;;;;;;;;;18.70;41.20;;;;;;5052482;28;19961;-87
2022/11/05 10:54:12;;;;;;;;;;;18.70;39.70;;;;;;5053809;28;19942;-87
2022/11/05 10:56:38;;;;;;;;;;;18.70;39.10;;;;;;5055190;28;20033;-87
2022/11/05 10:59:05;;;;;;;;;;;18.60;38.60;;;;;;5051237;28;19965;-87
2022/11/05 11:01:31;;;;;;;;;;;18.50;41.30;;;;;;5055160;28;19941;-87
2022/11/05 11:04:05;;;;;;;;;;;18.50;41.30;;;;;;5053696;28;20398;-87
2022/11/05 11:06:33;;;;;;;;;;;18.60;41.80;;;;;;5055956;28;20175;-87
2022/11/05 11:09:04;;;;;;;;;;;18.80;41.00;;;;;;5053617;28;20019;-87
2022/11/05 11:11:30;;;;;;;;;;;19.00;40.00;;;;;;5055221;28;19947;-87
2022/11/05 11:13:55;;;;;;;;;;;19.00;40.10;;;;;;5051700;28;20028;-87
2022/11/05 11:16:22;;;;;;;;;;;19.10;37.40;;;;;;5046503;28;19949;-87
2022/11/05 11:18:52;;;;;;;;;;;19.10;37.70;;;;;;5037347;28;19964;-87
2022/11/05 11:21:18;;;;;;;;;;;19.10;39.00;;;;;;5050651;28;19958;-87
2022/11/05 11:23:55;;;;;;;;;;;19.20;37.50;;;;;;5056228;28;19989;-87
2022/11/05 11:26:22;;;;;;;;;;;19.10;36.80;;;;;;5051947;28;19946;-87
2022/11/05 11:28:51;;;;;;;;;;;19.30;38.40;;;;;;5055463;28;19948;-87
2022/11/05 11:31:21;;;;;;;;;;;19.50;38.20;;;;;;5054608;28;20007;-87
2022/11/05 11:33:49;;;;;;;;;;;19.80;36.70;;;;;;5054859;28;19975;-87
2022/11/05 11:36:16;;;;;;;;;;;19.70;34.20;;;;;;5054861;28;19952;-87
2022/11/05 11:38:42;;;;;;;;;;;19.90;33.70;;;;;;5054506;28;19958;-87
2022/11/05 11:41:22;;;;;;;;;;;20.20;33.20;;;;;;5054547;28;20003;-87
2022/11/05 11:43:47;;;;;;;;;;;20.80;34.80;;;;;;5054494;28;19970;-87
2022/11/05 11:46:17;;;;;;;;;;;21.50;32.10;;;;;;5054454;28;20309;-87
2022/11/05 11:48:46;;;;;;;;;;;22.00;31.10;;;;;;5054393;28;20026;-87
2022/11/05 11:51:14;;;;;;;;;;;22.80;29.70;;;;;;5052616;28;19988;-87
2022/11/05 11:53:40;;;;;;;;;;;23.70;28.10;;;;;;5054241;28;19941;-87
2022/11/05 11:56:17;;;;;;;;;;;24.50;28.90;;;;;;5054090;28;20025;-87
2022/11/05 11:58:42;;;;;;;;;;;24.60;29.00;;;;;;5054191;28;20448;-87
2022/11/05 12:01:07;;;;;;;;;;;24.90;27.30;;;;;;5054198;28;19985;-87
2022/11/05 12:03:41;;;;;;;;;;;25.00;29.80;;;;;;5054179;28;19946;-87
2022/11/05 12:06:18;;;;;;;;;;;24.90;29.20;;;;;;5054187;28;20314;-88
2022/11/05 12:09:04;;;;;;;;;;;25.20;27.50;;;;;;5054390;28;19945;-87
2022/11/05 12:11:40;;;;;;;;;;;24.80;26.00;;;;;;5043188;28;20032;-87
2022/11/05 12:14:21;;;;;;;;;;;24.80;26.00;;;;;;5054044;28;19943;-87
2022/11/05 12:17:07;;;;;;;;;;;24.80;25.40;;;;;;5054001;28;19940;-87
2022/11/05 12:19:39;;;;;;;;;;;24.10;26.90;;;;;;5053513;28;20440;-87
2022/11/05 12:22:04;;;;;;;;;;;24.00;26.40;;;;;;5053886;28;20410;-88
2022/11/05 12:24:30;;;;;;;;;;;24.30;26.40;;;;;;5053870;28;19944;-87
2022/11/05 12:26:55;;;;;;;;;;;24.20;26.90;;;;;;5053875;28;19940;-87
2022/11/05 12:29:21;;;;;;;;;;;24.30;25.00;;;;;;4982367;28;2033200;-88
2022/11/05 12:32:02;;;;;;;;;;;24.30;25.70;;;;;;5054737;28;19947;-88
2022/11/05 12:34:33;;;;;;;;;;;24.30;28.40;;;;;;5054771;28;19940;-87
2022/11/05 12:37:18;;;;;;;;;;;24.10;27.00;;;;;;5054677;28;20326;-87
2022/11/05 12:40:02;;;;;;;;;;;24.10;26.10;;;;;;5054879;28;20043;-87
2022/11/05 12:42:30;;;;;;;;;;;24.50;27.50;;;;;;5054546;28;19934;-87
2022/11/05 12:45:11;;;;;;;;;;;24.70;27.90;;;;;;5054527;28;20406;-87
2022/11/05 12:47:55;;;;;;;;;;;24.80;26.70;;;;;;5054521;28;19964;-88
2022/11/05 12:50:32;;;;;;;;;;;24.80;26.40;;;;;;5054464;28;19949;-88
2022/11/05 12:53:13;;;;;;;;;;;24.70;26.90;;;;;;5054218;28;19991;-88
2022/11/05 12:55:40;;;;;;;;;;;24.70;25.60;;;;;;5054391;28;20393;-88
2022/11/05 12:58:13;;;;;;;;;;;25.20;27.20;;;;;;5054296;28;19940;-88
2022/11/05 13:00:40;;;;;;;;;;;25.10;24.50;;;;;;5054443;28;20020;-88
2022/11/05 13:03:24;;;;;;;;;;;24.80;24.80;;;;;;5054193;28;20455;-88
2022/11/05 13:05:52;;;;;;;;;;;24.80;25.40;;;;;;5053933;28;19939;-88
2022/11/05 13:08:24;;;;;;;;;;;25.30;24.30;;;;;;5053750;28;20016;-88
2022/11/05 13:10:55;;;;;;;;;;;25.60;25.60;;;;;;5053924;28;19949;-88
2022/11/05 13:13:37;;;;;;;;;;;25.90;25.30;;;;;;5054020;28;19943;-88
2022/11/05 13:16:11;;;;;;;;;;;25.80;26.10;;;;;;5054185;28;19941;-88
2022/11/05 13:18:37;;;;;;;;;;;25.50;26.80;;;;;;5053824;28;19964;-88
2022/11/05 13:21:04;;;;;;;;;;;25.00;28.30;;;;;;5053782;28;19945;-88
2022/11/05 13:23:34;;;;;;;;;;;25.00;27.70;;;;;;5054032;28;20001;-88
2022/11/05 13:26:06;;;;;;;;;;;24.70;26.40;;;;;;5053767;28;19952;-88
2022/11/05 13:28:37;;;;;;;;;;;24.70;26.70;;;;;;5053709;28;19942;-88
2022/11/05 13:31:05;;;;;;;;;;;25.00;26.00;;;;;;5054078;28;20497;-87
2022/11/05 13:33:32;;;;;;;;;;;25.00;26.90;;;;;;5053631;28;19941;-88
2022/11/05 13:39:16;;;;;;;;;;;25.60;27.60;;;;;;5053436;28;19967;-88
2022/11/05 13:41:45;;;;;;;;;;;25.60;26.40;;;;;;5053500;28;19936;-88
2022/11/05 13:44:27;;;;;;;;;;;25.80;25.50;;;;;;5053428;28;20027;-88
2022/11/05 13:46:52;;;;;;;;;;;25.80;27.20;;;;;;5052135;28;19981;-88
2022/11/05 13:49:35;;;;;;;;;;;25.90;25.50;;;;;;5053368;28;19985;-88
2022/11/05 13:52:16;;;;;;;;;;;26.20;26.80;;;;;;5053128;28;19960;-88
2022/11/05 13:54:58;;;;;;;;;;;26.00;25.20;;;;;;5053301;28;19945;-88
2022/11/05 13:57:36;;;;;;;;;;;26.20;25.00;;;;;;5053305;28;19938;-88
2022/11/05 14:00:05;;;;;;;;;;;26.20;26.60;;;;;;5053112;28;19968;-88
2022/11/05 14:02:57;;;;;;;;;;;26.20;24.50;;;;;;5053185;28;20054;-88
2022/11/05 14:05:30;;;;;;;;;;;26.00;26.90;;;;;;5050058;28;19943;-88
2022/11/05 14:07:57;;;;;;;;;;;26.60;26.10;;;;;;5053377;28;20022;-88
2022/11/05 14:10:36;;;;;;;;;;;26.40;24.80;;;;;;5053126;28;19987;-88
2022/11/05 14:13:28;;;;;;;;;;;26.30;25.90;;;;;;5053096;28;20018;-88
2022/11/05 14:15:55;;;;;;;;;;;26.00;24.70;;;;;;5049854;28;19942;-89
2022/11/05 14:18:24;;;;;;;;;;;25.90;25.50;;;;;;5051966;28;20028;-88
2022/11/05 14:20:59;;;;;;;;;;;25.50;25.70;;;;;;5052954;28;19946;-88
2022/11/05 14:23:26;;;;;;;;;;;25.60;26.20;;;;;;5053285;28;19940;-88
2022/11/05 14:25:54;;;;;;;;;;;25.10;25.90;;;;;;5052986;28;19953;-88
2022/11/05 14:28:36;;;;;;;;;;;25.10;25.50;;;;;;5052922;28;19955;-88
2022/11/05 14:31:17;;;;;;;;;;;25.00;27.20;;;;;;5079670;22;19982;-88
2022/11/05 14:33:53;;;;;;;;;;;25.40;27.70;;;;;;5072902;28;19940;-88
2022/11/05 14:36:18;;;;;;;;;;;25.50;28.70;;;;;;5072920;28;19948;-88
2022/11/05 14:38:51;;;;;;;;;;;25.90;27.40;;;;;;5072783;28;19977;-88
2022/11/05 14:41:17;;;;;;;;;;;26.30;27.70;;;;;;5072875;28;19935;-89
2022/11/05 14:44:11;;;;;;;;;;;26.20;27.00;;;;;;5072833;28;19939;-88
2022/11/05 14:46:42;;;;;;;;;;;26.10;25.70;;;;;;5067871;28;19949;-88
2022/11/05 14:49:14;;;;;;;;;;;26.20;27.10;;;;;;5072795;28;19934;-88
2022/11/05 14:51:43;;;;;;;;;;;26.30;25.40;;;;;;5081334;28;19956;-88
2022/11/05 14:54:17;;;;;;;;;;;26.30;27.50;;;;;;5092894;28;19945;-88
2022/11/05 14:56:47;;;;;;;;;;;26.10;28.40;;;;;;5093085;28;19973;-88
2022/11/05 14:59:30;;;;;;;;;;;26.10;27.70;;;;;;5093076;28;20009;-88
2022/11/05 15:02:00;;;;;;;;;;;26.10;27.50;;;;;;5091597;28;19951;-88
2022/11/05 15:04:34;;;;;;;;;;;26.10;28.20;;;;;;5092793;28;20029;-88
2022/11/05 15:07:03;;;;;;;;;;;25.70;27.90;;;;;;5092771;28;19943;-88
2022/11/05 15:09:47;;;;;;;;;;;25.30;29.30;;;;;;5092770;28;19944;-88
2022/11/05 15:12:25;;;;;;;;;;;24.80;30.10;;;;;;5092727;28;19939;-88
2022/11/05 15:14:53;;;;;;;;;;;24.30;31.10;;;;;;5092776;28;19946;-88
2022/11/05 15:17:29;;;;;;;;;;;24.20;31.70;;;;;;5092661;28;19983;-88
2022/11/05 15:19:59;;;;;;;;;;;23.80;33.10;;;;;;5092629;28;20004;-88